Fenner, New York
Current Conditions -  °F | °C
As of 10:54 PM on Friday 19 Dec 2014 (Local Time) from KSYR Reporting Station
Overcast Overcast  
Wind Chill: 21°   Ceiling: 2200
Heat Index: 26°   Visibility: 10mi
Dew Point: 21°   Wind: 5mph
Humidity: 81%   Direction: 250°WSW
Pressure: 30.25"   Gusts: NA
Location:  42.9403°N, 75.8232°W
Report Text: KSYR 200354Z 25004KT 10SM OVC022 M03/M06 A3025 RMK AO2 SLP246 T10331061
Loading
Personal Weather Stations






























Interactive Weather Map New forecast layout! Learn more

10-Day Weather Forecast

Advertisements
Track Severe Weather on mobile